Terminal Aerodrome Forecast
Issued by NWS Sioux Falls, SD

Home | Current Version | Previous Version | Graphics & Text | Print | Product List | Glossary On
Versions: 1 2 3 4 5 6 7 8 9 10 11 12 13 14 15 16 17 18 19 20 21 22 23 24 25 26 27
000
FTUS43 KFSD 270520
TAFSUX
TAF
KSUX 270520Z 2706/2806 12005KT P6SM SCT030 BKN200
     FM271000 11005KT 6SM BR SCT015
     FM271400 14009KT P6SM SCT060
     FM271800 15014G21KT P6SM SCT050
     FM280100 15012KT P6SM BKN120=

USA.gov is the U.S. government's official web portal to all federal, state and local government web resources and services.